WWW356 KLAS-KTNX
Flight info
| Callsign | WWW356 |
|---|---|
| Flight time | 0h 34m |
| Altitude | 16000 |
| Route | LOHLA3 JAYSN CENIT ESSAA LEAHI KICHI TPH |
| Aircraft | B736/M-SDE2E3FGHIRWXY/LB1 |
Departure
| Time | 2026-05-06 01:13 |
|---|---|
| Airport | Harry Reid International Airport (KLAS) |
Arrival
| Time | 2026-05-06 01:47 |
|---|---|
| Airport | Tonopah Test Range Airport (KTNX) |
| Time | Latitude | Longitude | Altitude | Speed | Heading |
|---|---|---|---|---|---|
| 2026-05-06 00:57 | 36.09173 | -115.16530 | 2146 ft | 0 kts | 76° |
| 2026-05-06 01:08 | 36.09173 | -115.16529 | 2136 ft | 0 kts | 76° |
| 2026-05-06 01:09 | 36.09174 | -115.16523 | 2145 ft | 3 kts | 83° |
| 2026-05-06 01:09 | 36.09145 | -115.16479 | 2142 ft | 11 kts | 146° |
| 2026-05-06 01:09 | 36.09130 | -115.16371 | 2135 ft | 17 kts | 60° |
| 2026-05-06 01:10 | 36.09242 | -115.16299 | 2130 ft | 20 kts | 25° |
| 2026-05-06 01:10 | 36.09382 | -115.16218 | 2126 ft | 24 kts | 25° |
| 2026-05-06 01:10 | 36.09495 | -115.16064 | 2116 ft | 27 kts | 26° |
| 2026-05-06 01:10 | 36.09659 | -115.15970 | 2110 ft | 25 kts | 25° |
| 2026-05-06 01:11 | 36.09811 | -115.15884 | 2108 ft | 23 kts | 25° |
| 2026-05-06 01:11 | 36.09900 | -115.15769 | 2103 ft | 19 kts | 102° |
| 2026-05-06 01:11 | 36.09826 | -115.15725 | 2100 ft | 12 kts | 205° |
| 2026-05-06 01:11 | 36.09757 | -115.15764 | 2101 ft | 10 kts | 204° |
| 2026-05-06 01:12 | 36.09651 | -115.15825 | 2102 ft | 38 kts | 205° |
| 2026-05-06 01:12 | 36.09214 | -115.16075 | 2114 ft | 98 kts | 205° |
| 2026-05-06 01:12 | 36.08455 | -115.16512 | 2153 ft | 138 kts | 202° |
| 2026-05-06 01:12 | 36.07577 | -115.17021 | 2515 ft | 143 kts | 204° |
| 2026-05-06 01:13 | 36.06644 | -115.17566 | 2900 ft | 151 kts | 211° |
| 2026-05-06 01:13 | 36.06037 | -115.18531 | 3400 ft | 146 kts | 263° |
| 2026-05-06 01:13 | 36.06186 | -115.19770 | 3866 ft | 147 kts | 283° |
| 2026-05-06 01:13 | 36.06457 | -115.21090 | 4275 ft | 172 kts | 282° |
| 2026-05-06 01:14 | 36.07013 | -115.24298 | 5146 ft | 211 kts | 280° |
| 2026-05-06 01:14 | 36.07324 | -115.26212 | 5351 ft | 243 kts | 284° |
| 2026-05-06 01:14 | 36.08191 | -115.28091 | 5762 ft | 267 kts | 317° |
| 2026-05-06 01:15 | 36.09889 | -115.29049 | 6592 ft | 274 kts | 347° |
| 2026-05-06 01:15 | 36.11768 | -115.29469 | 7567 ft | 275 kts | 349° |
| 2026-05-06 01:15 | 36.13661 | -115.29916 | 8532 ft | 278 kts | 348° |
| 2026-05-06 01:15 | 36.15561 | -115.30402 | 9601 ft | 279 kts | 347° |
| 2026-05-06 01:16 | 36.17357 | -115.31334 | 10495 ft | 289 kts | 324° |
| 2026-05-06 01:16 | 36.18711 | -115.33310 | 10806 ft | 320 kts | 298° |
| 2026-05-06 01:16 | 36.19649 | -115.35931 | 11209 ft | 342 kts | 294° |
| 2026-05-06 01:16 | 36.20547 | -115.38706 | 11976 ft | 351 kts | 294° |
| 2026-05-06 01:17 | 36.21457 | -115.41538 | 12924 ft | 356 kts | 294° |
| 2026-05-06 01:17 | 36.22390 | -115.44401 | 13837 ft | 361 kts | 295° |
| 2026-05-06 01:17 | 36.23354 | -115.47301 | 14687 ft | 366 kts | 295° |
| 2026-05-06 01:17 | 36.24329 | -115.50197 | 15472 ft | 373 kts | 296° |
| 2026-05-06 01:18 | 36.25332 | -115.53173 | 15895 ft | 376 kts | 296° |
| 2026-05-06 01:18 | 36.26506 | -115.56100 | 16016 ft | 387 kts | 306° |
| 2026-05-06 01:18 | 36.28119 | -115.58809 | 15994 ft | 393 kts | 310° |
| 2026-05-06 01:18 | 36.29826 | -115.61469 | 16008 ft | 395 kts | 311° |
| 2026-05-06 01:19 | 36.31543 | -115.64126 | 16012 ft | 394 kts | 311° |
| 2026-05-06 01:19 | 36.33242 | -115.66792 | 16011 ft | 394 kts | 311° |
| 2026-05-06 01:19 | 36.34932 | -115.69475 | 15989 ft | 394 kts | 310° |
| 2026-05-06 01:19 | 36.36614 | -115.72170 | 15992 ft | 395 kts | 310° |
| 2026-05-06 01:20 | 36.38289 | -115.74873 | 15995 ft | 395 kts | 310° |
| 2026-05-06 01:20 | 36.39962 | -115.77584 | 15990 ft | 396 kts | 310° |
| 2026-05-06 01:20 | 36.41635 | -115.80303 | 15986 ft | 396 kts | 310° |
| 2026-05-06 01:20 | 36.43303 | -115.83020 | 15979 ft | 396 kts | 310° |
| 2026-05-06 01:21 | 36.44970 | -115.85742 | 15976 ft | 396 kts | 310° |
| 2026-05-06 01:21 | 36.46632 | -115.88463 | 15966 ft | 395 kts | 309° |
| 2026-05-06 01:21 | 36.48296 | -115.91187 | 15969 ft | 395 kts | 309° |
| 2026-05-06 01:21 | 36.49960 | -115.93906 | 15965 ft | 395 kts | 309° |
| 2026-05-06 01:22 | 36.51625 | -115.96625 | 15971 ft | 395 kts | 309° |
| 2026-05-06 01:22 | 36.53267 | -115.99307 | 15959 ft | 395 kts | 309° |
| 2026-05-06 01:22 | 36.54932 | -116.02029 | 15949 ft | 395 kts | 309° |
| 2026-05-06 01:22 | 36.56549 | -116.04783 | 15962 ft | 396 kts | 304° |
| 2026-05-06 01:23 | 36.57687 | -116.07924 | 15976 ft | 399 kts | 292° |
| 2026-05-06 01:23 | 36.58631 | -116.11181 | 15944 ft | 400 kts | 291° |
| 2026-05-06 01:23 | 36.59557 | -116.14445 | 15943 ft | 400 kts | 291° |
| 2026-05-06 01:23 | 36.60494 | -116.17701 | 15943 ft | 400 kts | 292° |
| 2026-05-06 01:24 | 36.61446 | -116.20952 | 15934 ft | 399 kts | 292° |
| 2026-05-06 01:24 | 36.62409 | -116.24191 | 15952 ft | 399 kts | 292° |
| 2026-05-06 01:24 | 36.63392 | -116.27469 | 15951 ft | 413 kts | 292° |
| 2026-05-06 01:24 | 36.64416 | -116.30872 | 15950 ft | 424 kts | 292° |
| 2026-05-06 01:25 | 36.65446 | -116.34308 | 15930 ft | 422 kts | 292° |
| 2026-05-06 01:25 | 36.66469 | -116.37729 | 15935 ft | 421 kts | 292° |
| 2026-05-06 01:25 | 36.67508 | -116.41143 | 15946 ft | 421 kts | 295° |
| 2026-05-06 01:25 | 36.68870 | -116.44349 | 15940 ft | 418 kts | 305° |
| 2026-05-06 01:26 | 36.70637 | -116.47210 | 15936 ft | 415 kts | 315° |
| 2026-05-06 01:26 | 36.72660 | -116.49775 | 15953 ft | 415 kts | 317° |
| 2026-05-06 01:26 | 36.74698 | -116.52313 | 15935 ft | 414 kts | 317° |
| 2026-05-06 01:26 | 36.76710 | -116.54823 | 15935 ft | 414 kts | 317° |
| 2026-05-06 01:27 | 36.78741 | -116.57374 | 15938 ft | 414 kts | 316° |
| 2026-05-06 01:27 | 36.80762 | -116.59930 | 15937 ft | 414 kts | 316° |
| 2026-05-06 01:27 | 36.82781 | -116.62497 | 15941 ft | 414 kts | 316° |
| 2026-05-06 01:27 | 36.84796 | -116.65066 | 15939 ft | 414 kts | 316° |
| 2026-05-06 01:28 | 36.86811 | -116.67641 | 15940 ft | 415 kts | 316° |
| 2026-05-06 01:28 | 36.88824 | -116.70222 | 15954 ft | 415 kts | 316° |
| 2026-05-06 01:28 | 36.90839 | -116.72802 | 15947 ft | 414 kts | 316° |
| 2026-05-06 01:28 | 36.92856 | -116.75382 | 15942 ft | 414 kts | 316° |
| 2026-05-06 01:29 | 36.94861 | -116.77951 | 15941 ft | 413 kts | 316° |
| 2026-05-06 01:29 | 36.96870 | -116.80527 | 15952 ft | 413 kts | 316° |
| 2026-05-06 01:29 | 36.98873 | -116.83098 | 15944 ft | 413 kts | 316° |
| 2026-05-06 01:29 | 37.00878 | -116.85675 | 15946 ft | 413 kts | 316° |
| 2026-05-06 01:30 | 37.02882 | -116.88251 | 15938 ft | 413 kts | 316° |
| 2026-05-06 01:30 | 37.04887 | -116.90830 | 15945 ft | 413 kts | 316° |
| 2026-05-06 01:30 | 37.06961 | -116.93326 | 15946 ft | 413 kts | 322° |
| 2026-05-06 01:30 | 37.09317 | -116.95364 | 15951 ft | 412 kts | 331° |
| 2026-05-06 01:31 | 37.11751 | -116.97173 | 15952 ft | 413 kts | 331° |
| 2026-05-06 01:31 | 37.14227 | -116.99000 | 15949 ft | 413 kts | 331° |
| 2026-05-06 01:31 | 37.16668 | -117.00814 | 15944 ft | 400 kts | 331° |
| 2026-05-06 01:31 | 37.19021 | -117.02579 | 15950 ft | 390 kts | 331° |
| 2026-05-06 01:32 | 37.21339 | -117.04328 | 15956 ft | 388 kts | 331° |
| 2026-05-06 01:32 | 37.23654 | -117.06081 | 15963 ft | 389 kts | 331° |
| 2026-05-06 01:32 | 37.25975 | -117.07845 | 15962 ft | 390 kts | 331° |
| 2026-05-06 01:32 | 37.27519 | -117.09019 | 15960 ft | 391 kts | 331° |
| 2026-05-06 01:33 | 37.29842 | -117.10789 | 15964 ft | 391 kts | 331° |
| 2026-05-06 01:33 | 37.32169 | -117.12563 | 15974 ft | 391 kts | 331° |
| 2026-05-06 01:33 | 37.34494 | -117.14337 | 15973 ft | 391 kts | 331° |
| 2026-05-06 01:33 | 37.36817 | -117.16111 | 15976 ft | 391 kts | 331° |
| 2026-05-06 01:34 | 37.39137 | -117.17885 | 15977 ft | 390 kts | 331° |
| 2026-05-06 01:34 | 37.41456 | -117.19658 | 15981 ft | 390 kts | 331° |
| 2026-05-06 01:34 | 37.43779 | -117.21435 | 15982 ft | 390 kts | 331° |
| 2026-05-06 01:34 | 37.46123 | -117.23142 | 15980 ft | 388 kts | 337° |
| 2026-05-06 01:35 | 37.48667 | -117.24201 | 15992 ft | 383 kts | 351° |
| 2026-05-06 01:35 | 37.51307 | -117.24542 | 15992 ft | 380 kts | 2° |
| 2026-05-06 01:35 | 37.53938 | -117.24264 | 15997 ft | 379 kts | 8° |
| 2026-05-06 01:35 | 37.56566 | -117.23880 | 15989 ft | 380 kts | 8° |
| 2026-05-06 01:36 | 37.59161 | -117.23491 | 15987 ft | 380 kts | 8° |
| 2026-05-06 01:36 | 37.61789 | -117.23105 | 15993 ft | 380 kts | 8° |
| 2026-05-06 01:36 | 37.64419 | -117.22729 | 15991 ft | 380 kts | 8° |
| 2026-05-06 01:36 | 37.67050 | -117.22361 | 15991 ft | 380 kts | 8° |
| 2026-05-06 01:37 | 37.69679 | -117.21998 | 15993 ft | 379 kts | 8° |
| 2026-05-06 01:37 | 37.72299 | -117.21639 | 15997 ft | 379 kts | 8° |
| 2026-05-06 01:37 | 37.74924 | -117.21281 | 15997 ft | 379 kts | 7° |
| 2026-05-06 01:37 | 37.77543 | -117.20924 | 15998 ft | 379 kts | 8° |
| 2026-05-06 01:38 | 37.80165 | -117.20566 | 15998 ft | 379 kts | 7° |
| 2026-05-06 01:38 | 37.82760 | -117.20211 | 15810 ft | 371 kts | 8° |
| 2026-05-06 01:38 | 37.85332 | -117.19859 | 15240 ft | 370 kts | 7° |
| 2026-05-06 01:38 | 37.87845 | -117.19514 | 14665 ft | 365 kts | 7° |
| 2026-05-06 01:39 | 37.90350 | -117.19171 | 14048 ft | 360 kts | 7° |
| 2026-05-06 01:39 | 37.92823 | -117.18832 | 13403 ft | 356 kts | 7° |
| 2026-05-06 01:39 | 37.95196 | -117.18035 | 12709 ft | 353 kts | 26° |
| 2026-05-06 01:39 | 37.97193 | -117.16273 | 12188 ft | 350 kts | 41° |
| 2026-05-06 01:40 | 37.98699 | -117.13858 | 11569 ft | 350 kts | 57° |
| 2026-05-06 01:40 | 37.99819 | -117.11217 | 11415 ft | 328 kts | 59° |
| 2026-05-06 01:40 | 38.00849 | -117.08726 | 11256 ft | 309 kts | 58° |
| 2026-05-06 01:40 | 38.01823 | -117.06406 | 11120 ft | 288 kts | 59° |
| 2026-05-06 01:41 | 38.02683 | -117.04195 | 10985 ft | 272 kts | 68° |
| 2026-05-06 01:41 | 38.02959 | -117.01878 | 10781 ft | 264 kts | 87° |
| 2026-05-06 01:41 | 38.02638 | -116.99633 | 10533 ft | 261 kts | 103° |
| 2026-05-06 01:41 | 38.02148 | -116.97423 | 10272 ft | 256 kts | 102° |
| 2026-05-06 01:42 | 38.01693 | -116.95300 | 10023 ft | 242 kts | 102° |
| 2026-05-06 01:42 | 38.01275 | -116.93293 | 9757 ft | 228 kts | 101° |
| 2026-05-06 01:42 | 38.00884 | -116.91395 | 9486 ft | 216 kts | 102° |
| 2026-05-06 01:42 | 38.00327 | -116.89677 | 9215 ft | 208 kts | 121° |
| 2026-05-06 01:43 | 37.99364 | -116.88329 | 8983 ft | 207 kts | 143° |
| 2026-05-06 01:43 | 37.98072 | -116.87531 | 8726 ft | 206 kts | 158° |
| 2026-05-06 01:43 | 37.96725 | -116.86877 | 8402 ft | 205 kts | 161° |
| 2026-05-06 01:43 | 37.95428 | -116.86271 | 8127 ft | 198 kts | 160° |
| 2026-05-06 01:44 | 37.94174 | -116.85648 | 7854 ft | 191 kts | 158° |
| 2026-05-06 01:44 | 37.92965 | -116.85016 | 7634 ft | 187 kts | 159° |
| 2026-05-06 01:44 | 37.91771 | -116.84384 | 7410 ft | 189 kts | 159° |
| 2026-05-06 01:44 | 37.90543 | -116.83731 | 7219 ft | 192 kts | 159° |
| 2026-05-06 01:45 | 37.89305 | -116.83073 | 6955 ft | 193 kts | 159° |
| 2026-05-06 01:45 | 37.88083 | -116.82424 | 6748 ft | 188 kts | 159° |
| 2026-05-06 01:45 | 37.86893 | -116.81791 | 6514 ft | 183 kts | 161° |
| 2026-05-06 01:45 | 37.85713 | -116.81166 | 6344 ft | 185 kts | 159° |
| 2026-05-06 01:46 | 37.84561 | -116.80551 | 6107 ft | 173 kts | 160° |
| 2026-05-06 01:46 | 37.83494 | -116.79982 | 5948 ft | 161 kts | 161° |
| 2026-05-06 01:46 | 37.82481 | -116.79447 | 5748 ft | 154 kts | 163° |
| 2026-05-06 01:46 | 37.81492 | -116.78929 | 5619 ft | 155 kts | 159° |
| 2026-05-06 01:47 | 37.80533 | -116.78421 | 5554 ft | 137 kts | 156° |
| 2026-05-06 01:47 | 37.79778 | -116.78015 | 5553 ft | 102 kts | 157° |
| 2026-05-06 01:47 | 37.79235 | -116.77726 | 5553 ft | 67 kts | 157° |
| 2026-05-06 01:47 | 37.78916 | -116.77556 | 5553 ft | 32 kts | 158° |
| 2026-05-06 01:48 | 37.78778 | -116.77483 | 5553 ft | 19 kts | 157° |
| 2026-05-06 01:48 | 37.78726 | -116.77365 | 5553 ft | 18 kts | 67° |
| 2026-05-06 01:48 | 37.78775 | -116.77220 | 5553 ft | 18 kts | 68° |
| 2026-05-06 01:48 | 37.78794 | -116.77082 | 5555 ft | 17 kts | 135° |
| 2026-05-06 01:49 | 37.78689 | -116.77023 | 5553 ft | 16 kts | 158° |
| 2026-05-06 01:49 | 37.78585 | -116.76968 | 5553 ft | 16 kts | 157° |
| 2026-05-06 01:49 | 37.78505 | -116.76894 | 5553 ft | 15 kts | 91° |
| 2026-05-06 01:49 | 37.78504 | -116.76791 | 5556 ft | 11 kts | 158° |
| 2026-05-06 01:50 | 37.78479 | -116.76729 | 5553 ft | 8 kts | 67° |
| 2026-05-06 01:50 | 37.78484 | -116.76714 | 5555 ft | 0 kts | 67° |